sensor_id;sensor_type;location;lat;lon;timestamp;pressure;altitude;pressure_sealevel;temperature;humidity
44825;BME280;30542;47.928;2.138;2022-08-25T00:02:37;100237.59;;;25.24;45.24
44825;BME280;30542;47.928;2.138;2022-08-25T00:07:37;100235.41;;;25.26;45.36
44825;BME280;30542;47.928;2.138;2022-08-25T00:12:38;100225.81;;;25.20;45.51
44825;BME280;30542;47.928;2.138;2022-08-25T00:17:38;100237.19;;;25.17;45.53
44825;BME280;30542;47.928;2.138;2022-08-25T00:22:38;100227.72;;;25.19;45.36
44825;BME280;30542;47.928;2.138;2022-08-25T00:27:40;100226.41;;;25.17;45.46
44825;BME280;30542;47.928;2.138;2022-08-25T00:32:40;100219.41;;;25.16;45.47
44825;BME280;30542;47.928;2.138;2022-08-25T00:37:40;100208.16;;;25.14;45.37
44825;BME280;30542;47.928;2.138;2022-08-25T00:42:41;100180.09;;;25.15;45.23
44825;BME280;30542;47.928;2.138;2022-08-25T00:47:41;100178.00;;;25.12;45.44
44825;BME280;30542;47.928;2.138;2022-08-25T00:52:45;100172.59;;;25.12;45.21
44825;BME280;30542;47.928;2.138;2022-08-25T00:57:51;100172.38;;;25.08;45.11
44825;BME280;30542;47.928;2.138;2022-08-25T01:02:53;100171.59;;;25.08;44.99
44825;BME280;30542;47.928;2.138;2022-08-25T01:07:56;100186.16;;;25.07;45.07
44825;BME280;30542;47.928;2.138;2022-08-25T01:13:08;100179.47;;;25.04;44.93
44825;BME280;30542;47.928;2.138;2022-08-25T01:18:11;100194.34;;;25.01;45.00
44825;BME280;30542;47.928;2.138;2022-08-25T01:23:11;100190.03;;;25.00;44.87
44825;BME280;30542;47.928;2.138;2022-08-25T01:28:12;100186.56;;;25.00;44.84
44825;BME280;30542;47.928;2.138;2022-08-25T01:33:12;100194.94;;;24.98;44.73
44825;BME280;30542;47.928;2.138;2022-08-25T01:38:13;100189.25;;;25.00;44.52
44825;BME280;30542;47.928;2.138;2022-08-25T01:48:15;100192.84;;;24.95;44.39
44825;BME280;30542;47.928;2.138;2022-08-25T01:53:23;100186.47;;;24.91;44.19
44825;BME280;30542;47.928;2.138;2022-08-25T01:58:31;100184.88;;;24.90;44.24
44825;BME280;30542;47.928;2.138;2022-08-25T02:03:32;100179.28;;;24.87;44.23
44825;BME280;30542;47.928;2.138;2022-08-25T02:08:33;100175.28;;;24.84;44.20
44825;BME280;30542;47.928;2.138;2022-08-25T02:13:34;100176.38;;;24.83;44.11
44825;BME280;30542;47.928;2.138;2022-08-25T02:18:38;100175.59;;;24.83;44.20
44825;BME280;30542;47.928;2.138;2022-08-25T02:23:39;100159.75;;;24.81;44.08
44825;BME280;30542;47.928;2.138;2022-08-25T02:28:45;100155.94;;;24.82;44.11
44825;BME280;30542;47.928;2.138;2022-08-25T02:33:45;100143.56;;;24.81;44.15
44825;BME280;30542;47.928;2.138;2022-08-25T02:38:46;100141.78;;;24.76;44.07
44825;BME280;30542;47.928;2.138;2022-08-25T02:43:48;100125.44;;;24.73;43.92
44825;BME280;30542;47.928;2.138;2022-08-25T02:48:49;100130.50;;;24.74;43.98
44825;BME280;30542;47.928;2.138;2022-08-25T02:53:51;100122.84;;;24.68;43.82
44825;BME280;30542;47.928;2.138;2022-08-25T02:58:51;100120.63;;;24.70;43.81
44825;BME280;30542;47.928;2.138;2022-08-25T03:03:52;100124.72;;;24.67;43.81
44825;BME280;30542;47.928;2.138;2022-08-25T03:08:53;100125.81;;;24.66;43.86
44825;BME280;30542;47.928;2.138;2022-08-25T03:13:53;100117.25;;;24.64;43.63
44825;BME280;30542;47.928;2.138;2022-08-25T03:18:55;100127.22;;;24.64;43.51
44825;BME280;30542;47.928;2.138;2022-08-25T03:23:56;100119.53;;;24.57;43.46
44825;BME280;30542;47.928;2.138;2022-08-25T03:28:57;100116.84;;;24.57;43.33
44825;BME280;30542;47.928;2.138;2022-08-25T03:33:59;100107.19;;;24.56;43.47
44825;BME280;30542;47.928;2.138;2022-08-25T03:38:59;100110.66;;;24.57;43.42
44825;BME280;30542;47.928;2.138;2022-08-25T03:44:02;100090.81;;;24.52;43.50
44825;BME280;30542;47.928;2.138;2022-08-25T03:49:06;100100.78;;;24.52;43.30
44825;BME280;30542;47.928;2.138;2022-08-25T03:54:07;100096.78;;;24.49;43.42
44825;BME280;30542;47.928;2.138;2022-08-25T03:59:08;100095.22;;;24.48;43.17
44825;BME280;30542;47.928;2.138;2022-08-25T04:04:10;100099.59;;;24.44;43.22
44825;BME280;30542;47.928;2.138;2022-08-25T04:09:11;100097.00;;;24.39;43.04
44825;BME280;30542;47.928;2.138;2022-08-25T04:14:12;100102.88;;;24.41;43.11
44825;BME280;30542;47.928;2.138;2022-08-25T04:19:12;100109.38;;;24.40;43.28
44825;BME280;30542;47.928;2.138;2022-08-25T04:24:14;100111.03;;;24.36;43.54
44825;BME280;30542;47.928;2.138;2022-08-25T04:29:16;100118.00;;;24.37;43.52
44825;BME280;30542;47.928;2.138;2022-08-25T04:34:18;100126.63;;;24.39;43.43
44825;BME280;30542;47.928;2.138;2022-08-25T04:39:19;100134.97;;;24.38;43.23
44825;BME280;30542;47.928;2.138;2022-08-25T04:44:20;100136.94;;;24.32;43.42
44825;BME280;30542;47.928;2.138;2022-08-25T04:49:20;100152.19;;;24.37;43.31
44825;BME280;30542;47.928;2.138;2022-08-25T04:54:21;100157.38;;;24.33;43.22
44825;BME280;30542;47.928;2.138;2022-08-25T04:59:22;100160.59;;;24.35;43.14
44825;BME280;30542;47.928;2.138;2022-08-25T05:04:22;100160.66;;;24.30;43.31
44825;BME280;30542;47.928;2.138;2022-08-25T05:09:24;100158.56;;;24.27;43.16
44825;BME280;30542;47.928;2.138;2022-08-25T05:14:25;100162.84;;;24.28;43.24
44825;BME280;30542;47.928;2.138;2022-08-25T05:19:25;100163.22;;;24.21;43.05
44825;BME280;30542;47.928;2.138;2022-08-25T05:24:26;100161.69;;;23.69;43.20
44825;BME280;30542;47.928;2.138;2022-08-25T05:29:27;100166.94;;;23.55;43.84
44825;BME280;30542;47.928;2.138;2022-08-25T05:34:27;100166.66;;;23.38;44.53
44825;BME280;30542;47.928;2.138;2022-08-25T05:39:29;100166.50;;;23.29;44.81
44825;BME280;30542;47.928;2.138;2022-08-25T05:44:31;100164.91;;;23.28;45.23
44825;BME280;30542;47.928;2.138;2022-08-25T05:49:31;100163.59;;;23.25;45.15
44825;BME280;30542;47.928;2.138;2022-08-25T05:54:32;100173.06;;;23.23;45.49
44825;BME280;30542;47.928;2.138;2022-08-25T05:59:33;100172.75;;;23.24;46.00
44825;BME280;30542;47.928;2.138;2022-08-25T06:04:34;100163.38;;;23.22;46.19
44825;BME280;30542;47.928;2.138;2022-08-25T06:09:37;100173.41;;;23.16;46.45
44825;BME280;30542;47.928;2.138;2022-08-25T06:14:38;100175.78;;;23.18;47.03
44825;BME280;30542;47.928;2.138;2022-08-25T06:19:38;100172.53;;;23.21;47.52
44825;BME280;30542;47.928;2.138;2022-08-25T06:24:38;100178.94;;;23.25;48.10
44825;BME280;30542;47.928;2.138;2022-08-25T06:29:39;100166.50;;;23.29;47.87
44825;BME280;30542;47.928;2.138;2022-08-25T06:34:39;100171.09;;;23.28;48.27
44825;BME280;30542;47.928;2.138;2022-08-25T06:39:40;100175.09;;;23.31;47.72
44825;BME280;30542;47.928;2.138;2022-08-25T06:44:40;100173.94;;;23.37;47.34
44825;BME280;30542;47.928;2.138;2022-08-25T06:49:41;100170.91;;;23.44;47.16
44825;BME280;30542;47.928;2.138;2022-08-25T06:54:41;100179.38;;;23.51;47.44
44825;BME280;30542;47.928;2.138;2022-08-25T06:59:42;100175.00;;;23.55;46.45
44825;BME280;30542;47.928;2.138;2022-08-25T07:04:42;100168.63;;;23.51;46.69
44825;BME280;30542;47.928;2.138;2022-08-25T07:09:42;100154.53;;;23.59;46.88
44825;BME280;30542;47.928;2.138;2022-08-25T07:14:43;100157.22;;;23.59;47.08
44825;BME280;30542;47.928;2.138;2022-08-25T07:19:43;100161.03;;;23.77;46.55
44825;BME280;30542;47.928;2.138;2022-08-25T07:24:44;100147.03;;;23.94;45.32
44825;BME280;30542;47.928;2.138;2022-08-25T07:29:44;100149.75;;;24.08;44.67
44825;BME280;30542;47.928;2.138;2022-08-25T07:34:45;100157.34;;;24.19;44.81
44825;BME280;30542;47.928;2.138;2022-08-25T07:40:04;100151.75;;;24.16;45.34
44825;BME280;30542;47.928;2.138;2022-08-25T07:45:05;100147.38;;;24.06;45.89
44825;BME280;30542;47.928;2.138;2022-08-25T07:50:08;100155.66;;;24.10;46.22
44825;BME280;30542;47.928;2.138;2022-08-25T07:55:09;100161.81;;;24.10;46.46
44825;BME280;30542;47.928;2.138;2022-08-25T08:00:13;100162.63;;;24.11;46.28
44825;BME280;30542;47.928;2.138;2022-08-25T08:05:14;100165.22;;;24.16;45.62
44825;BME280;30542;47.928;2.138;2022-08-25T08:10:14;100178.38;;;24.17;46.22
44825;BME280;30542;47.928;2.138;2022-08-25T08:15:15;100183.56;;;24.14;46.76
44825;BME280;30542;47.928;2.138;2022-08-25T08:20:15;100186.44;;;24.17;46.58
44825;BME280;30542;47.928;2.138;2022-08-25T08:25:16;100188.13;;;24.13;46.21
44825;BME280;30542;47.928;2.138;2022-08-25T08:30:17;100190.75;;;24.18;45.91
44825;BME280;30542;47.928;2.138;2022-08-25T08:35:17;100195.03;;;24.19;45.71
44825;BME280;30542;47.928;2.138;2022-08-25T08:40:19;100176.69;;;24.21;45.32
44825;BME280;30542;47.928;2.138;2022-08-25T08:45:47;100166.81;;;24.17;45.24
44825;BME280;30542;47.928;2.138;2022-08-25T08:51:30;100175.22;;;24.29;45.35
44825;BME280;30542;47.928;2.138;2022-08-25T08:56:31;100162.34;;;24.26;44.98
44825;BME280;30542;47.928;2.138;2022-08-25T09:01:56;100159.66;;;24.26;45.03
44825;BME280;30542;47.928;2.138;2022-08-25T09:07:00;100161.06;;;24.37;44.32
44825;BME280;30542;47.928;2.138;2022-08-25T09:27:24;100165.22;;;24.48;43.26
44825;BME280;30542;47.928;2.138;2022-08-25T09:32:34;100160.31;;;24.50;42.37
44825;BME280;30542;47.928;2.138;2022-08-25T09:37:37;100155.34;;;24.58;42.32
44825;BME280;30542;47.928;2.138;2022-08-25T09:42:50;100146.47;;;24.57;41.22
44825;BME280;30542;47.928;2.138;2022-08-25T09:47:51;100145.66;;;24.57;41.36
44825;BME280;30542;47.928;2.138;2022-08-25T09:52:51;100149.66;;;24.59;41.35
44825;BME280;30542;47.928;2.138;2022-08-25T09:57:52;100137.78;;;24.60;41.45
44825;BME280;30542;47.928;2.138;2022-08-25T10:03:12;100138.00;;;24.64;41.51
44825;BME280;30542;47.928;2.138;2022-08-25T10:08:25;100137.91;;;24.69;41.32
44825;BME280;30542;47.928;2.138;2022-08-25T10:18:35;100148.56;;;24.74;40.72
44825;BME280;30542;47.928;2.138;2022-08-25T10:23:40;100145.56;;;24.75;41.21
44825;BME280;30542;47.928;2.138;2022-08-25T10:34:06;100144.06;;;24.83;40.06
44825;BME280;30542;47.928;2.138;2022-08-25T10:39:20;100135.38;;;24.86;39.79
44825;BME280;30542;47.928;2.138;2022-08-25T10:50:13;100142.44;;;24.96;38.87
44825;BME280;30542;47.928;2.138;2022-08-25T10:56:11;100136.16;;;25.00;37.22
44825;BME280;30542;47.928;2.138;2022-08-25T11:01:34;100140.88;;;24.95;37.50
44825;BME280;30542;47.928;2.138;2022-08-25T11:06:49;100144.75;;;25.02;37.25
44825;BME280;30542;47.928;2.138;2022-08-25T11:12:08;100138.25;;;25.03;37.45
44825;BME280;30542;47.928;2.138;2022-08-25T11:17:13;100137.25;;;24.99;37.32
44825;BME280;30542;47.928;2.138;2022-08-25T11:22:29;100129.69;;;25.01;37.90
44825;BME280;30542;47.928;2.138;2022-08-25T11:27:37;100126.69;;;25.03;37.65
44825;BME280;30542;47.928;2.138;2022-08-25T11:32:50;100137.97;;;25.05;37.84
44825;BME280;30542;47.928;2.138;2022-08-25T11:48:59;100139.66;;;25.15;37.71
44825;BME280;30542;47.928;2.138;2022-08-25T12:04:48;100112.53;;;25.11;37.70
44825;BME280;30542;47.928;2.138;2022-08-25T12:14:52;100107.94;;;25.12;38.07
44825;BME280;30542;47.928;2.138;2022-08-25T12:19:56;100115.88;;;25.17;37.45
44825;BME280;30542;47.928;2.138;2022-08-25T12:25:03;100120.69;;;25.20;37.27
44825;BME280;30542;47.928;2.138;2022-08-25T12:30:26;100119.28;;;25.22;37.20
44825;BME280;30542;47.928;2.138;2022-08-25T12:45:44;100106.47;;;25.28;35.80
44825;BME280;30542;47.928;2.138;2022-08-25T12:50:47;100116.78;;;25.26;36.79
44825;BME280;30542;47.928;2.138;2022-08-25T12:56:09;100112.66;;;25.28;36.93
44825;BME280;30542;47.928;2.138;2022-08-25T13:01:29;100111.88;;;25.28;36.80
44825;BME280;30542;47.928;2.138;2022-08-25T13:17:07;100120.59;;;25.47;36.55
44825;BME280;30542;47.928;2.138;2022-08-25T13:22:12;100119.63;;;25.43;36.78
44825;BME280;30542;47.928;2.138;2022-08-25T13:27:21;100109.25;;;25.37;37.11
44825;BME280;30542;47.928;2.138;2022-08-25T13:32:28;100114.16;;;25.35;37.39
44825;BME280;30542;47.928;2.138;2022-08-25T13:37:29;100110.66;;;25.34;38.01
44825;BME280;30542;47.928;2.138;2022-08-25T13:42:31;100109.56;;;25.35;38.56
44825;BME280;30542;47.928;2.138;2022-08-25T13:47:34;100109.56;;;25.35;38.57
44825;BME280;30542;47.928;2.138;2022-08-25T13:52:35;100111.75;;;25.33;39.13
44825;BME280;30542;47.928;2.138;2022-08-25T13:57:41;100120.34;;;25.35;39.41
44825;BME280;30542;47.928;2.138;2022-08-25T14:07:54;100122.06;;;25.31;40.12
44825;BME280;30542;47.928;2.138;2022-08-25T14:13:14;100129.53;;;25.34;40.56
44825;BME280;30542;47.928;2.138;2022-08-25T14:18:29;100137.91;;;25.33;40.77
44825;BME280;30542;47.928;2.138;2022-08-25T14:23:35;100132.84;;;25.31;41.00
44825;BME280;30542;47.928;2.138;2022-08-25T14:28:37;100140.00;;;25.36;41.01
44825;BME280;30542;47.928;2.138;2022-08-25T14:33:42;100145.09;;;25.37;41.32
44825;BME280;30542;47.928;2.138;2022-08-25T14:38:47;100144.28;;;25.37;41.35
44825;BME280;30542;47.928;2.138;2022-08-25T14:43:48;100135.91;;;25.38;41.45
44825;BME280;30542;47.928;2.138;2022-08-25T14:48:52;100142.31;;;25.42;41.45
44825;BME280;30542;47.928;2.138;2022-08-25T14:53:57;100149.16;;;25.48;41.58
44825;BME280;30542;47.928;2.138;2022-08-25T14:58:58;100155.84;;;25.51;41.69
44825;BME280;30542;47.928;2.138;2022-08-25T15:04:04;100160.75;;;25.49;42.09
44825;BME280;30542;47.928;2.138;2022-08-25T15:09:05;100155.66;;;25.47;42.11
44825;BME280;30542;47.928;2.138;2022-08-25T15:14:13;100152.97;;;25.47;42.07
44825;BME280;30542;47.928;2.138;2022-08-25T15:19:18;100154.06;;;25.46;42.35
44825;BME280;30542;47.928;2.138;2022-08-25T15:24:20;100150.25;;;25.47;42.33
44825;BME280;30542;47.928;2.138;2022-08-25T15:29:22;100152.66;;;25.49;42.72
44825;BME280;30542;47.928;2.138;2022-08-25T15:34:22;100155.03;;;25.50;43.05
44825;BME280;30542;47.928;2.138;2022-08-25T15:39:23;100153.75;;;25.48;42.95
44825;BME280;30542;47.928;2.138;2022-08-25T15:44:23;100151.84;;;25.48;43.10
44825;BME280;30542;47.928;2.138;2022-08-25T15:49:25;100158.84;;;25.49;42.95
44825;BME280;30542;47.928;2.138;2022-08-25T15:54:26;100159.34;;;25.51;43.10
44825;BME280;30542;47.928;2.138;2022-08-25T15:59:27;100162.31;;;25.50;42.99
44825;BME280;30542;47.928;2.138;2022-08-25T16:04:28;100163.13;;;25.50;43.28
44825;BME280;30542;47.928;2.138;2022-08-25T16:09:28;100159.34;;;25.51;43.27
44825;BME280;30542;47.928;2.138;2022-08-25T16:14:30;100160.94;;;25.52;43.39
44825;BME280;30542;47.928;2.138;2022-08-25T16:19:30;100167.13;;;25.53;43.50
44825;BME280;30542;47.928;2.138;2022-08-25T16:24:32;100157.13;;;25.53;43.36
44825;BME280;30542;47.928;2.138;2022-08-25T16:29:35;100160.63;;;25.54;43.39
44825;BME280;30542;47.928;2.138;2022-08-25T16:34:37;100167.91;;;25.53;43.48
44825;BME280;30542;47.928;2.138;2022-08-25T16:39:38;100176.88;;;25.63;43.48
44825;BME280;30542;47.928;2.138;2022-08-25T16:44:43;100180.25;;;25.68;43.86
44825;BME280;30542;47.928;2.138;2022-08-25T16:49:44;100186.84;;;25.76;44.09
44825;BME280;30542;47.928;2.138;2022-08-25T16:54:44;100190.03;;;25.78;44.09
44825;BME280;30542;47.928;2.138;2022-08-25T17:00:08;100187.06;;;25.80;44.16
44825;BME280;30542;47.928;2.138;2022-08-25T17:05:11;100184.03;;;25.81;44.24
44825;BME280;30542;47.928;2.138;2022-08-25T17:10:11;100180.34;;;25.77;44.65
44825;BME280;30542;47.928;2.138;2022-08-25T17:15:12;100194.22;;;25.84;44.41
44825;BME280;30542;47.928;2.138;2022-08-25T17:20:12;100191.81;;;25.83;44.62
44825;BME280;30542;47.928;2.138;2022-08-25T17:25:13;100200.09;;;25.86;44.83
44825;BME280;30542;47.928;2.138;2022-08-25T17:30:13;100199.13;;;25.82;45.55
44825;BME280;30542;47.928;2.138;2022-08-25T17:35:14;100218.66;;;25.88;45.53
44825;BME280;30542;47.928;2.138;2022-08-25T17:40:14;100212.78;;;25.86;45.66
44825;BME280;30542;47.928;2.138;2022-08-25T17:45:15;100227.09;;;25.86;45.92
44825;BME280;30542;47.928;2.138;2022-08-25T17:50:15;100227.09;;;25.86;46.05
44825;BME280;30542;47.928;2.138;2022-08-25T17:55:16;100232.78;;;25.85;46.24
44825;BME280;30542;47.928;2.138;2022-08-25T18:00:21;100236.56;;;25.84;46.19
44825;BME280;30542;47.928;2.138;2022-08-25T18:05:22;100242.59;;;25.81;46.56
44825;BME280;30542;47.928;2.138;2022-08-25T18:10:22;100259.28;;;25.83;46.79
44825;BME280;30542;47.928;2.138;2022-08-25T18:15:23;100256.88;;;25.81;47.25
44825;BME280;30542;47.928;2.138;2022-08-25T18:20:24;100255.91;;;25.77;47.22
44825;BME280;30542;47.928;2.138;2022-08-25T18:25:26;100259.78;;;25.71;47.67
44825;BME280;30542;47.928;2.138;2022-08-25T18:30:27;100274.56;;;25.73;47.84
44825;BME280;30542;47.928;2.138;2022-08-25T18:35:27;100281.34;;;25.71;48.18
44825;BME280;30542;47.928;2.138;2022-08-25T18:40:28;100288.66;;;25.70;48.13
44825;BME280;30542;47.928;2.138;2022-08-25T18:45:32;100289.44;;;25.71;48.15
44825;BME280;30542;47.928;2.138;2022-08-25T18:50:34;100294.16;;;25.65;48.42
44825;BME280;30542;47.928;2.138;2022-08-25T18:55:36;100293.84;;;25.67;48.60
44825;BME280;30542;47.928;2.138;2022-08-25T19:00:38;100284.97;;;25.66;48.64
44825;BME280;30542;47.928;2.138;2022-08-25T19:05:43;100297.06;;;25.69;48.45
44825;BME280;30542;47.928;2.138;2022-08-25T19:10:47;100303.38;;;25.64;48.71
44825;BME280;30542;47.928;2.138;2022-08-25T19:15:48;100309.75;;;25.68;48.64
44825;BME280;30542;47.928;2.138;2022-08-25T19:20:48;100324.22;;;25.72;48.80
44825;BME280;30542;47.928;2.138;2022-08-25T19:25:49;100335.81;;;25.73;48.74
44825;BME280;30542;47.928;2.138;2022-08-25T19:30:49;100345.94;;;25.67;49.09
44825;BME280;30542;47.928;2.138;2022-08-25T19:35:50;100362.13;;;25.67;49.02
44825;BME280;30542;47.928;2.138;2022-08-25T19:40:51;100362.72;;;25.64;49.18
44825;BME280;30542;47.928;2.138;2022-08-25T19:45:51;100370.59;;;25.61;49.20
44825;BME280;30542;47.928;2.138;2022-08-25T19:50:52;100382.19;;;25.61;49.21
44825;BME280;30542;47.928;2.138;2022-08-25T19:55:52;100382.19;;;25.61;49.31
44825;BME280;30542;47.928;2.138;2022-08-25T20:00:53;100388.69;;;25.60;49.45
44825;BME280;30542;47.928;2.138;2022-08-25T20:05:53;100395.19;;;25.59;49.27
44825;BME280;30542;47.928;2.138;2022-08-25T20:10:55;100400.25;;;25.61;49.20
44825;BME280;30542;47.928;2.138;2022-08-25T20:15:56;100407.84;;;25.59;49.47
44825;BME280;30542;47.928;2.138;2022-08-25T20:20:57;100419.75;;;25.58;49.52
44825;BME280;30542;47.928;2.138;2022-08-25T20:25:57;100420.84;;;25.57;49.42
44825;BME280;30542;47.928;2.138;2022-08-25T20:30:57;100425.72;;;25.54;49.57
44825;BME280;30542;47.928;2.138;2022-08-25T20:35:58;100428.13;;;25.56;49.43
44825;BME280;30542;47.928;2.138;2022-08-25T20:40:59;100430.84;;;25.56;49.23
44825;BME280;30542;47.928;2.138;2022-08-25T20:46:00;100444.59;;;25.54;49.31
44825;BME280;30542;47.928;2.138;2022-08-25T20:51:05;100442.44;;;25.57;49.28
44825;BME280;30542;47.928;2.138;2022-08-25T20:56:14;100446.81;;;25.52;49.38
44825;BME280;30542;47.928;2.138;2022-08-25T21:01:18;100447.72;;;25.48;49.59
44825;BME280;30542;47.928;2.138;2022-08-25T21:06:18;100449.81;;;25.51;49.47
44825;BME280;30542;47.928;2.138;2022-08-25T21:11:19;100454.38;;;25.50;49.68
44825;BME280;30542;47.928;2.138;2022-08-25T21:16:21;100457.59;;;25.52;49.40
44825;BME280;30542;47.928;2.138;2022-08-25T21:21:23;100455.22;;;25.51;49.44
44825;BME280;30542;47.928;2.138;2022-08-25T21:26:26;100469.50;;;25.51;49.46
44825;BME280;30542;47.928;2.138;2022-08-25T21:31:28;100470.28;;;25.52;49.52
44825;BME280;30542;47.928;2.138;2022-08-25T21:36:29;100467.88;;;25.50;49.57
44825;BME280;30542;47.928;2.138;2022-08-25T21:41:32;100474.38;;;25.49;49.44
44825;BME280;30542;47.928;2.138;2022-08-25T21:46:33;100470.56;;;25.50;49.48
44825;BME280;30542;47.928;2.138;2022-08-25T21:51:38;100472.66;;;25.40;49.71
44825;BME280;30542;47.928;2.138;2022-08-25T21:56:54;100483.75;;;25.38;49.46
44825;BME280;30542;47.928;2.138;2022-08-25T22:02:08;100482.13;;;25.37;49.32
44825;BME280;30542;47.928;2.138;2022-08-25T22:07:09;100487.53;;;25.37;49.58
44825;BME280;30542;47.928;2.138;2022-08-25T22:12:10;100491.03;;;25.38;49.45
44825;BME280;30542;47.928;2.138;2022-08-25T22:17:11;100493.22;;;25.36;49.39
44825;BME280;30542;47.928;2.138;2022-08-25T22:22:11;100493.53;;;25.34;49.28
44825;BME280;30542;47.928;2.138;2022-08-25T22:27:12;100497.59;;;25.32;49.26
44825;BME280;30542;47.928;2.138;2022-08-25T22:32:13;100487.63;;;25.32;49.25
44825;BME280;30542;47.928;2.138;2022-08-25T22:37:14;100488.72;;;25.31;49.03
44825;BME280;30542;47.928;2.138;2022-08-25T22:42:16;100491.13;;;25.33;48.84
44825;BME280;30542;47.928;2.138;2022-08-25T22:47:17;100499.00;;;25.29;48.74
44825;BME280;30542;47.928;2.138;2022-08-25T22:52:17;100491.22;;;25.27;48.77
44825;BME280;30542;47.928;2.138;2022-08-25T22:57:18;100489.09;;;25.24;48.53
44825;BME280;30542;47.928;2.138;2022-08-25T23:02:19;100487.72;;;25.27;48.26
44825;BME280;30542;47.928;2.138;2022-08-25T23:07:19;100484.50;;;25.25;48.25
44825;BME280;30542;47.928;2.138;2022-08-25T23:12:21;100484.00;;;25.23;47.95
44825;BME280;30542;47.928;2.138;2022-08-25T23:17:22;100488.81;;;25.26;47.81
44825;BME280;30542;47.928;2.138;2022-08-25T23:22:23;100492.09;;;25.23;47.80
44825;BME280;30542;47.928;2.138;2022-08-25T23:27:24;100498.59;;;25.22;47.90
44825;BME280;30542;47.928;2.138;2022-08-25T23:32:24;100504.03;;;25.17;47.74
44825;BME280;30542;47.928;2.138;2022-08-25T23:37:24;100516.72;;;25.16;47.73
44825;BME280;30542;47.928;2.138;2022-08-25T23:42:25;100508.13;;;25.14;47.50
44825;BME280;30542;47.928;2.138;2022-08-25T23:47:25;100518.63;;;25.16;47.45
44825;BME280;30542;47.928;2.138;2022-08-25T23:52:26;100513.22;;;25.16;47.06
44825;BME280;30542;47.928;2.138;2022-08-25T23:57:26;100504.66;;;25.14;47.25
